createdAt,value
2022-08-03T00:00:56.445Z,6.40
2022-08-03T00:01:56.409Z,5.10
2022-08-03T00:02:56.469Z,4.70
2022-08-03T00:03:56.384Z,3.30
2022-08-03T00:04:56.380Z,3.40
2022-08-03T00:06:03.826Z,5.60
2022-08-03T00:06:56.366Z,6.10
2022-08-03T00:07:56.345Z,5.40
2022-08-03T00:08:56.337Z,3.50
2022-08-03T00:09:56.325Z,5.90
2022-08-03T00:10:56.359Z,4.80
2022-08-03T00:11:56.304Z,3.70
2022-08-03T00:12:56.298Z,4.40
2022-08-03T00:13:56.284Z,4.50
2022-08-03T00:14:56.278Z,3.90
2022-08-03T00:15:56.287Z,5.20
2022-08-03T00:16:56.255Z,5.60
2022-08-03T00:17:56.242Z,6.10
2022-08-03T00:18:56.240Z,4.30
2022-08-03T00:19:56.225Z,4.60
2022-08-03T00:20:56.240Z,4.60
2022-08-03T00:21:56.202Z,4.40
2022-08-03T00:22:56.194Z,3.90
2022-08-03T00:23:56.187Z,5.20
2022-08-03T00:24:56.179Z,4.60
2022-08-03T00:25:56.185Z,5.40
2022-08-03T00:26:56.161Z,3.80
2022-08-03T00:27:56.147Z,4.60
2022-08-03T00:28:56.140Z,4.80
2022-08-03T00:29:59.872Z,4.20
2022-08-03T00:30:56.142Z,3.60
2022-08-03T00:31:59.333Z,5.20
2022-08-03T00:32:56.097Z,6.80
2022-08-03T00:33:59.442Z,5.00
2022-08-03T00:34:57.938Z,4.50
2022-08-03T00:35:56.086Z,5.10
2022-08-03T00:36:56.055Z,5.40
2022-08-03T00:37:56.041Z,4.30
2022-08-03T00:38:56.036Z,6.10
2022-08-03T00:39:56.043Z,5.10
2022-08-03T00:40:56.055Z,5.80
2022-08-03T00:41:55.998Z,5.60
2022-08-03T00:42:55.995Z,4.30
2022-08-03T00:43:55.977Z,6.80
2022-08-03T00:44:55.972Z,5.70
2022-08-03T00:45:55.984Z,4.50
2022-08-03T00:46:55.957Z,5.50
2022-08-03T00:47:55.937Z,5.20
2022-08-03T00:48:55.997Z,4.60
2022-08-03T00:49:55.921Z,5.20
2022-08-03T00:50:55.936Z,4.00
2022-08-03T00:51:55.897Z,7.50
2022-08-03T00:52:55.888Z,4.80
2022-08-03T00:53:55.880Z,4.20
2022-08-03T00:54:55.872Z,5.00
2022-08-03T00:55:55.879Z,4.50
2022-08-03T00:57:00.218Z,3.60
2022-08-03T00:57:55.841Z,5.10
2022-08-03T00:58:55.828Z,3.30
2022-08-03T00:59:55.814Z,5.30
2022-08-03T01:00:55.952Z,5.30
2022-08-03T01:01:55.803Z,6.10
2022-08-03T01:02:55.790Z,4.90
2022-08-03T01:03:55.774Z,4.90
2022-08-03T01:04:55.776Z,4.80
2022-08-03T01:05:55.778Z,6.30
2022-08-03T01:06:55.746Z,7.60
2022-08-03T01:07:55.734Z,6.30
2022-08-03T01:08:55.727Z,6.50
2022-08-03T01:09:55.712Z,4.60
2022-08-03T01:10:55.731Z,5.00
2022-08-03T01:12:00.210Z,4.90
2022-08-03T01:12:55.695Z,6.10
2022-08-03T01:14:01.961Z,5.40
2022-08-03T01:14:55.665Z,4.30
2022-08-03T01:15:55.678Z,3.90
2022-08-03T01:16:55.639Z,5.50
2022-08-03T01:17:55.635Z,4.50
2022-08-03T01:18:55.623Z,4.50
2022-08-03T01:19:55.620Z,6.00
2022-08-03T01:20:55.629Z,4.90
2022-08-03T01:21:55.595Z,5.90
2022-08-03T01:22:55.607Z,5.90
2022-08-03T01:23:55.575Z,5.00
2022-08-03T01:24:55.572Z,3.70
2022-08-03T01:25:55.576Z,3.90
2022-08-03T01:26:55.541Z,4.80
2022-08-03T01:27:55.533Z,6.20
2022-08-03T01:28:55.520Z,3.50
2022-08-03T01:29:55.539Z,5.10
2022-08-03T01:30:55.498Z,5.20
2022-08-03T01:33:00.248Z,4.70
2022-08-03T01:33:06.668Z,3.90
2022-08-03T01:33:55.471Z,5.70
2022-08-03T01:34:55.481Z,5.50
2022-08-03T01:35:55.451Z,5.60
2022-08-03T01:36:55.445Z,4.60
2022-08-03T01:37:55.431Z,3.60
2022-08-03T01:38:55.418Z,4.60
2022-08-03T01:39:55.447Z,4.80
2022-08-03T01:40:55.396Z,5.60
2022-08-03T01:41:55.391Z,6.40
2022-08-03T01:42:55.377Z,4.90
2022-08-03T01:44:29.302Z,6.60
2022-08-03T01:44:55.362Z,6.30
2022-08-03T01:45:55.377Z,6.80
2022-08-03T01:46:55.336Z,4.20
2022-08-03T01:47:55.328Z,5.70
2022-08-03T01:48:55.378Z,4.60
2022-08-03T01:49:55.308Z,5.70
2022-08-03T01:50:55.319Z,7.10
2022-08-03T01:52:03.014Z,5.30
2022-08-03T01:52:55.282Z,6.80
2022-08-03T01:53:55.268Z,4.90
2022-08-03T01:54:55.258Z,5.90
2022-08-03T01:55:55.279Z,4.30
2022-08-03T01:56:55.235Z,8.50
2022-08-03T01:58:05.468Z,5.60
2022-08-03T01:58:55.222Z,6.20
2022-08-03T01:59:55.208Z,5.50
2022-08-03T02:00:55.355Z,6.30
2022-08-03T02:02:15.547Z,6.40
2022-08-03T02:02:55.179Z,5.40
2022-08-03T02:04:00.605Z,5.20
2022-08-03T02:04:55.156Z,4.70
2022-08-03T02:06:17.889Z,5.50
2022-08-03T02:07:07.021Z,6.90
2022-08-03T02:07:55.124Z,5.30
2022-08-03T02:08:55.113Z,5.40
2022-08-03T02:09:55.113Z,4.60
2022-08-03T02:10:55.115Z,5.60
2022-08-03T02:11:55.086Z,5.50
2022-08-03T02:12:55.070Z,5.40
2022-08-03T02:13:55.066Z,6.00
2022-08-03T02:14:55.049Z,5.30
2022-08-03T02:15:55.068Z,6.30
2022-08-03T02:16:55.028Z,5.10
2022-08-03T02:17:55.044Z,4.50
2022-08-03T02:18:55.009Z,6.40
2022-08-03T02:19:55.006Z,5.80
2022-08-03T02:20:55.012Z,9.20
2022-08-03T02:21:57.139Z,5.70
2022-08-03T02:22:54.976Z,7.20
2022-08-03T02:23:54.964Z,6.20
2022-08-03T02:24:54.948Z,4.30
2022-08-03T02:25:54.966Z,5.50
2022-08-03T02:26:54.926Z,4.70
2022-08-03T02:27:54.920Z,6.10
2022-08-03T02:28:54.905Z,5.40
2022-08-03T02:29:54.902Z,5.70
2022-08-03T02:30:54.909Z,5.20
2022-08-03T02:31:54.890Z,6.30
2022-08-03T02:32:54.867Z,5.30
2022-08-03T02:33:54.863Z,5.40
2022-08-03T02:34:54.847Z,5.10
2022-08-03T02:35:54.867Z,4.10
2022-08-03T02:36:54.824Z,5.00
2022-08-03T02:37:54.820Z,6.50
2022-08-03T02:38:54.803Z,7.50
2022-08-03T02:39:54.798Z,5.90
2022-08-03T02:40:54.806Z,5.70
2022-08-03T02:41:54.782Z,6.20
2022-08-03T02:42:54.765Z,5.30
2022-08-03T02:44:05.454Z,7.30
2022-08-03T02:44:54.744Z,5.90
2022-08-03T02:45:54.757Z,5.20
2022-08-03T02:46:54.720Z,6.50
2022-08-03T02:47:54.956Z,5.50
2022-08-03T02:48:54.751Z,6.10
2022-08-03T02:49:54.745Z,6.90
2022-08-03T02:50:54.704Z,5.20
2022-08-03T02:51:54.676Z,6.00
2022-08-03T02:52:54.660Z,6.10
2022-08-03T02:53:54.662Z,4.90
2022-08-03T02:54:54.644Z,6.80
2022-08-03T02:55:54.656Z,4.90
2022-08-03T02:56:54.622Z,6.70
2022-08-03T02:57:54.613Z,4.90
2022-08-03T02:58:54.599Z,5.30
2022-08-03T02:59:54.597Z,6.50
2022-08-03T03:00:54.711Z,6.40
2022-08-03T03:01:54.573Z,7.80
2022-08-03T03:02:54.560Z,7.00
2022-08-03T03:03:54.555Z,7.20
2022-08-03T03:05:01.363Z,4.60
2022-08-03T03:06:00.210Z,5.50
2022-08-03T03:06:54.524Z,5.30
2022-08-03T03:07:54.510Z,5.60
2022-08-03T03:08:59.461Z,7.00
2022-08-03T03:09:54.523Z,7.10
2022-08-03T03:10:55.417Z,4.60
2022-08-03T03:11:54.471Z,6.10
2022-08-03T03:12:54.459Z,5.30
2022-08-03T03:13:54.449Z,6.90
2022-08-03T03:14:54.752Z,7.60
2022-08-03T03:15:54.430Z,5.40
2022-08-03T03:16:57.691Z,7.20
2022-08-03T03:17:54.409Z,6.70
2022-08-03T03:18:54.422Z,6.10
2022-08-03T03:19:54.390Z,6.10
2022-08-03T03:20:54.397Z,6.80
2022-08-03T03:21:54.368Z,6.10
2022-08-03T03:22:54.357Z,5.60
2022-08-03T03:23:54.351Z,6.60
2022-08-03T03:24:54.337Z,5.80
2022-08-03T03:25:54.352Z,5.80
2022-08-03T03:26:54.315Z,8.70
2022-08-03T03:27:54.312Z,6.40
2022-08-03T03:28:54.293Z,6.40
2022-08-03T03:29:54.287Z,6.10
2022-08-03T03:30:54.296Z,6.10
2022-08-03T03:31:54.269Z,5.90
2022-08-03T03:32:54.251Z,7.10
2022-08-03T03:33:54.250Z,5.40
2022-08-03T03:34:54.234Z,7.30
2022-08-03T03:35:54.252Z,5.60
2022-08-03T03:36:54.211Z,6.10
2022-08-03T03:37:54.206Z,6.30
2022-08-03T03:38:54.190Z,6.10
2022-08-03T03:39:54.188Z,5.50
2022-08-03T03:40:54.199Z,5.10
2022-08-03T03:41:54.175Z,8.30
2022-08-03T03:42:54.148Z,7.00
2022-08-03T03:43:54.150Z,6.60
2022-08-03T03:44:54.128Z,6.40
2022-08-03T03:45:54.151Z,6.10
2022-08-03T03:46:54.110Z,7.70
2022-08-03T03:47:54.104Z,7.00
2022-08-03T03:48:54.138Z,6.60
2022-08-03T03:49:54.085Z,7.20
2022-08-03T03:50:54.094Z,6.50
2022-08-03T03:51:54.063Z,7.40
2022-08-03T03:52:54.052Z,7.10
2022-08-03T03:53:54.044Z,6.10
2022-08-03T03:54:57.562Z,7.00
2022-08-03T03:56:01.926Z,7.50
2022-08-03T03:56:54.011Z,7.10
2022-08-03T03:57:54.003Z,8.00
2022-08-03T03:58:53.986Z,7.80
2022-08-03T03:59:53.979Z,5.70
2022-08-03T04:00:54.200Z,8.90
2022-08-03T04:01:58.905Z,8.40
2022-08-03T04:02:53.950Z,5.80
2022-08-03T04:03:53.942Z,6.10
2022-08-03T04:04:53.931Z,6.50
2022-08-03T04:05:53.942Z,7.80
2022-08-03T04:06:53.902Z,5.80
2022-08-03T04:07:53.897Z,6.70
2022-08-03T04:08:53.883Z,7.00
2022-08-03T04:09:53.878Z,7.50
2022-08-03T04:10:53.885Z,6.50
2022-08-03T04:11:53.856Z,5.80
2022-08-03T04:12:53.842Z,5.60
2022-08-03T04:13:53.837Z,7.50
2022-08-03T04:14:53.822Z,6.30
2022-08-03T04:15:53.839Z,7.80
2022-08-03T04:16:53.801Z,7.00
2022-08-03T04:17:53.796Z,7.30
2022-08-03T04:18:53.780Z,6.50
2022-08-03T04:19:53.774Z,8.60
2022-08-03T04:20:53.785Z,8.40
2022-08-03T04:21:53.757Z,6.00
2022-08-03T04:22:53.738Z,4.80
2022-08-03T04:23:53.736Z,6.40
2022-08-03T04:24:53.725Z,6.80
2022-08-03T04:25:53.740Z,6.40
2022-08-03T04:26:53.700Z,8.20
2022-08-03T04:28:29.621Z,9.60
2022-08-03T04:28:53.684Z,7.90
2022-08-03T04:29:53.672Z,7.10
2022-08-03T04:30:53.691Z,7.90
2022-08-03T04:31:53.653Z,7.10
2022-08-03T04:32:53.637Z,7.10
2022-08-03T04:33:53.631Z,6.00
2022-08-03T04:34:53.615Z,6.50
2022-08-03T04:36:01.502Z,6.70
2022-08-03T04:36:53.601Z,7.10
2022-08-03T04:37:53.597Z,7.30
2022-08-03T04:38:53.576Z,6.20
2022-08-03T04:39:53.569Z,7.80
2022-08-03T04:40:53.581Z,6.10
2022-08-03T04:42:07.551Z,5.80
2022-08-03T04:42:53.540Z,5.90
2022-08-03T04:43:53.533Z,7.70
2022-08-03T04:44:56.544Z,6.70
2022-08-03T04:45:53.538Z,7.10
2022-08-03T04:46:53.498Z,6.30
2022-08-03T04:47:53.491Z,8.80
2022-08-03T04:48:53.522Z,6.50
2022-08-03T04:49:53.474Z,7.30
2022-08-03T04:50:53.484Z,7.20
2022-08-03T04:51:53.450Z,7.10
2022-08-03T04:52:53.434Z,5.90
2022-08-03T04:53:53.428Z,7.00
2022-08-03T04:54:53.416Z,8.10
2022-08-03T04:55:53.439Z,7.40
2022-08-03T04:56:53.393Z,5.80
2022-08-03T04:57:53.385Z,6.50
2022-08-03T04:58:53.373Z,7.20
2022-08-03T04:59:56.858Z,7.20
2022-08-03T05:00:53.383Z,6.30
2022-08-03T05:01:53.393Z,7.40
2022-08-03T05:02:53.331Z,7.30
2022-08-03T05:03:53.337Z,6.40
2022-08-03T05:04:53.349Z,6.50
2022-08-03T05:05:53.332Z,6.00
2022-08-03T05:06:54.996Z,7.50
2022-08-03T05:07:53.291Z,7.70
2022-08-03T05:08:53.273Z,6.00
2022-08-03T05:10:01.705Z,6.50
2022-08-03T05:10:53.281Z,6.10
2022-08-03T05:11:53.244Z,7.30
2022-08-03T05:12:53.230Z,7.60
2022-08-03T05:13:53.228Z,5.60
2022-08-03T05:14:53.211Z,7.70
2022-08-03T05:15:53.233Z,6.20
2022-08-03T05:16:53.191Z,7.10
2022-08-03T05:17:53.184Z,7.40
2022-08-03T05:18:53.171Z,6.90
2022-08-03T05:19:53.168Z,7.40
2022-08-03T05:20:53.175Z,7.30
2022-08-03T05:21:53.176Z,6.60
2022-08-03T05:22:53.128Z,5.20
2022-08-03T05:23:53.119Z,6.30
2022-08-03T05:24:53.107Z,9.40
2022-08-03T05:25:53.128Z,7.60
2022-08-03T05:26:53.112Z,6.10
2022-08-03T05:27:53.081Z,6.80
2022-08-03T05:28:53.069Z,6.60
2022-08-03T05:29:53.059Z,6.70
2022-08-03T05:30:53.075Z,7.00
2022-08-03T05:31:53.038Z,7.80
2022-08-03T05:32:53.036Z,6.30
2022-08-03T05:33:53.019Z,7.80
2022-08-03T05:34:53.016Z,7.20
2022-08-03T05:35:56.236Z,6.00
2022-08-03T05:36:52.999Z,7.80
2022-08-03T05:37:54.973Z,7.00
2022-08-03T05:38:52.972Z,8.00
2022-08-03T05:39:52.957Z,7.00
2022-08-03T05:41:20.348Z,7.20
2022-08-03T05:41:52.940Z,7.80
2022-08-03T05:42:52.928Z,5.40
2022-08-03T05:43:52.913Z,7.70
2022-08-03T05:44:52.912Z,6.20
2022-08-03T05:46:11.785Z,6.70
2022-08-03T05:46:52.897Z,7.20
2022-08-03T05:47:52.880Z,7.00
2022-08-03T05:48:52.901Z,7.90
2022-08-03T05:49:52.854Z,6.40
2022-08-03T05:50:52.879Z,5.10
2022-08-03T05:52:00.021Z,6.10
2022-08-03T05:52:52.833Z,5.70
2022-08-03T05:53:52.814Z,5.80
2022-08-03T05:54:56.138Z,5.50
2022-08-03T05:55:56.982Z,6.10
2022-08-03T05:56:52.816Z,7.20
2022-08-03T05:57:52.773Z,6.70
2022-08-03T05:58:52.771Z,6.40
2022-08-03T05:59:57.727Z,8.30
2022-08-03T06:00:52.754Z,6.40
2022-08-03T06:01:52.894Z,5.50
2022-08-03T06:02:52.726Z,6.00
2022-08-03T06:03:52.714Z,7.30
2022-08-03T06:04:52.713Z,4.70
2022-08-03T06:05:55.571Z,6.70
2022-08-03T06:06:52.715Z,7.10
2022-08-03T06:07:52.670Z,5.90
2022-08-03T06:08:52.666Z,6.60
2022-08-03T06:10:36.427Z,8.40
2022-08-03T06:10:52.649Z,6.50
2022-08-03T06:11:52.658Z,5.50
2022-08-03T06:12:52.632Z,7.00
2022-08-03T06:13:52.610Z,7.00
2022-08-03T06:14:52.603Z,6.90
2022-08-03T06:15:52.607Z,6.80
2022-08-03T06:16:52.608Z,8.50
2022-08-03T06:17:52.572Z,5.90
2022-08-03T06:18:52.563Z,5.30
2022-08-03T06:19:52.553Z,8.20
2022-08-03T06:20:52.597Z,7.90
2022-08-03T06:21:52.552Z,6.00
2022-08-03T06:23:00.241Z,6.30
2022-08-03T06:23:55.150Z,5.90
2022-08-03T06:24:53.800Z,5.30
2022-08-03T06:25:52.657Z,6.20
2022-08-03T06:26:52.507Z,8.40
2022-08-03T06:27:52.467Z,7.40
2022-08-03T06:28:54.192Z,7.20
2022-08-03T06:29:52.447Z,9.20
2022-08-03T06:30:52.443Z,7.00
2022-08-03T06:31:52.450Z,6.00
2022-08-03T06:32:52.685Z,6.10
2022-08-03T06:34:32.099Z,5.20
2022-08-03T06:34:52.408Z,8.40
2022-08-03T06:35:52.390Z,7.20
2022-08-03T06:36:52.981Z,7.10
2022-08-03T06:37:52.366Z,4.70
2022-08-03T06:38:52.369Z,5.70
2022-08-03T06:39:52.352Z,8.10
2022-08-03T06:40:52.340Z,5.50
2022-08-03T06:41:52.348Z,7.60
2022-08-03T06:42:52.327Z,4.50
2022-08-03T06:44:03.628Z,5.90
2022-08-03T06:44:52.308Z,5.30
2022-08-03T06:45:52.555Z,7.40
2022-08-03T06:46:52.306Z,5.50
2022-08-03T06:47:52.264Z,5.30
2022-08-03T06:48:52.453Z,5.60
2022-08-03T06:50:12.422Z,7.60
2022-08-03T06:50:52.243Z,4.90
2022-08-03T06:52:05.404Z,4.30
2022-08-03T06:52:52.225Z,4.40
2022-08-03T06:53:52.205Z,6.50
2022-08-03T06:54:52.199Z,5.90
2022-08-03T06:55:54.703Z,4.20
2022-08-03T06:56:52.207Z,7.10
2022-08-03T06:57:52.167Z,5.90
2022-08-03T06:58:52.158Z,4.60
2022-08-03T07:00:08.544Z,5.10
2022-08-03T07:00:52.143Z,8.70
2022-08-03T07:01:52.194Z,6.90
2022-08-03T07:02:57.684Z,5.50
2022-08-03T07:03:52.695Z,6.10
2022-08-03T07:04:52.113Z,4.20
2022-08-03T07:05:52.089Z,5.20
2022-08-03T07:06:52.149Z,5.90
2022-08-03T07:07:52.067Z,5.50
2022-08-03T07:08:55.442Z,4.30
2022-08-03T07:09:56.388Z,4.80
2022-08-03T07:10:52.043Z,5.10
2022-08-03T07:11:52.067Z,4.20
2022-08-03T07:12:55.785Z,5.40
2022-08-03T07:13:52.177Z,4.70
2022-08-03T07:14:54.570Z,5.80
2022-08-03T07:15:54.927Z,3.80
2022-08-03T07:16:52.001Z,6.50
2022-08-03T07:17:51.961Z,4.60
2022-08-03T07:18:51.957Z,5.00
2022-08-03T07:19:52.190Z,4.80
2022-08-03T07:20:51.936Z,6.00
2022-08-03T07:21:51.957Z,5.00
2022-08-03T07:22:51.923Z,5.00
2022-08-03T07:23:51.899Z,5.40
2022-08-03T07:24:51.895Z,6.50
2022-08-03T07:25:51.880Z,4.00
2022-08-03T07:26:51.898Z,4.80
2022-08-03T07:27:51.938Z,3.80
2022-08-03T07:28:51.872Z,4.40
2022-08-03T07:29:51.844Z,5.00
2022-08-03T07:30:51.835Z,6.00
2022-08-03T07:31:51.853Z,6.30
2022-08-03T07:32:51.819Z,5.70
2022-08-03T07:33:51.803Z,5.00
2022-08-03T07:34:53.102Z,7.30
2022-08-03T07:35:51.782Z,3.50
2022-08-03T07:36:51.801Z,7.90
2022-08-03T07:37:54.930Z,5.10
2022-08-03T07:38:51.756Z,5.50
2022-08-03T07:39:51.746Z,5.80
2022-08-03T07:40:51.735Z,7.90
2022-08-03T07:41:51.744Z,4.80
2022-08-03T07:42:53.245Z,5.70
2022-08-03T07:43:51.702Z,6.40
2022-08-03T07:44:51.697Z,6.80
2022-08-03T07:45:51.680Z,6.60
2022-08-03T07:46:51.708Z,6.80
2022-08-03T07:47:53.123Z,6.40
2022-08-03T07:48:51.655Z,6.60
2022-08-03T07:50:02.400Z,6.00
2022-08-03T07:50:51.634Z,6.20
2022-08-03T07:51:51.649Z,5.90
2022-08-03T07:52:51.624Z,5.80
2022-08-03T07:53:51.604Z,5.60
2022-08-03T07:54:51.597Z,7.20
2022-08-03T07:55:51.584Z,5.70
2022-08-03T07:56:51.609Z,6.10
2022-08-03T07:57:51.564Z,6.50
2022-08-03T07:58:51.557Z,6.50
2022-08-03T08:00:01.748Z,4.10
2022-08-03T08:00:51.612Z,6.50
2022-08-03T08:01:51.635Z,5.00
2022-08-03T08:02:51.529Z,5.10
2022-08-03T08:03:52.616Z,5.90
2022-08-03T08:04:51.496Z,6.30
2022-08-03T08:05:51.540Z,5.30
2022-08-03T08:06:51.478Z,6.90
2022-08-03T08:07:51.863Z,6.10
2022-08-03T08:08:51.460Z,5.80
2022-08-03T08:09:51.442Z,6.70
2022-08-03T08:10:58.546Z,5.10
2022-08-03T08:11:51.440Z,4.80
2022-08-03T08:12:51.420Z,5.30
2022-08-03T08:13:51.404Z,5.00
2022-08-03T08:14:51.400Z,6.00
2022-08-03T08:15:51.408Z,5.90
2022-08-03T08:16:51.387Z,4.20
2022-08-03T08:17:51.364Z,7.10
2022-08-03T08:18:51.361Z,5.80
2022-08-03T08:19:53.174Z,4.20
2022-08-03T08:20:51.364Z,3.50
2022-08-03T08:21:54.018Z,5.00
2022-08-03T08:22:51.326Z,5.90
2022-08-03T08:23:55.635Z,4.10
2022-08-03T08:24:51.305Z,5.00
2022-08-03T08:25:51.308Z,4.90
2022-08-03T08:26:51.280Z,4.70
2022-08-03T08:28:22.392Z,6.10
2022-08-03T08:28:51.266Z,6.90
2022-08-03T08:29:55.147Z,4.40
2022-08-03T08:30:51.305Z,6.50
2022-08-03T08:31:51.233Z,6.00
2022-08-03T08:32:51.223Z,4.80
2022-08-03T08:34:06.674Z,4.10
2022-08-03T08:34:51.210Z,5.90
2022-08-03T08:35:51.219Z,6.70
2022-08-03T08:36:51.189Z,6.20
2022-08-03T08:37:51.463Z,6.40
2022-08-03T08:38:51.164Z,5.60
2022-08-03T08:39:51.150Z,5.10
2022-08-03T08:40:51.172Z,5.90
2022-08-03T08:41:53.304Z,5.90
2022-08-03T08:42:58.388Z,5.40
2022-08-03T08:43:51.115Z,6.60
2022-08-03T08:44:51.111Z,6.40
2022-08-03T08:45:51.115Z,7.30
2022-08-03T08:46:51.095Z,6.60
2022-08-03T08:47:52.692Z,5.80
2022-08-03T08:48:51.068Z,5.40
2022-08-03T08:50:08.910Z,5.20
2022-08-03T08:50:51.056Z,5.20
2022-08-03T08:52:00.803Z,6.30
2022-08-03T08:52:51.036Z,7.70
2022-08-03T08:53:51.016Z,6.40
2022-08-03T08:54:51.038Z,6.20
2022-08-03T08:55:56.932Z,6.20
2022-08-03T08:56:50.994Z,6.60
2022-08-03T08:57:50.976Z,10.20
2022-08-03T08:58:50.969Z,6.40
2022-08-03T08:59:54.535Z,7.10
2022-08-03T09:00:51.024Z,6.10
2022-08-03T09:01:50.937Z,5.20
2022-08-03T09:02:50.932Z,5.60
2022-08-03T09:03:50.921Z,8.70
2022-08-03T09:04:50.939Z,8.80
2022-08-03T09:05:56.040Z,8.90
2022-08-03T09:07:17.748Z,9.30
2022-08-03T09:07:50.883Z,5.70
2022-08-03T09:08:50.875Z,5.60
2022-08-03T09:10:08.207Z,5.20
2022-08-03T09:10:50.857Z,6.00
2022-08-03T09:11:57.635Z,6.00
2022-08-03T09:12:50.839Z,5.30
2022-08-03T09:13:50.826Z,6.30
2022-08-03T09:15:14.745Z,5.00
2022-08-03T09:16:00.646Z,4.90
2022-08-03T09:16:51.622Z,5.40
2022-08-03T09:17:51.426Z,5.90
2022-08-03T09:18:50.776Z,5.90
2022-08-03T09:20:03.765Z,5.60
2022-08-03T09:20:50.759Z,5.30
2022-08-03T09:21:50.740Z,4.70
2022-08-03T09:22:50.733Z,4.00
2022-08-03T09:24:02.188Z,4.70
2022-08-03T09:25:03.296Z,3.70
2022-08-03T09:25:50.731Z,4.20
2022-08-03T09:26:51.933Z,5.10
2022-08-03T09:27:50.695Z,4.70
2022-08-03T09:29:01.755Z,4.70
2022-08-03T09:29:50.675Z,5.60
2022-08-03T09:30:50.694Z,4.10
2022-08-03T09:31:50.645Z,5.30
2022-08-03T09:32:50.676Z,5.70
2022-08-03T09:33:50.631Z,3.60
2022-08-03T09:34:51.814Z,8.20
2022-08-03T09:35:54.864Z,5.20
2022-08-03T09:36:50.660Z,3.80
2022-08-03T09:38:13.907Z,4.20
2022-08-03T09:38:50.694Z,3.80
2022-08-03T09:39:50.566Z,5.20
2022-08-03T09:40:50.587Z,5.30
2022-08-03T09:41:50.594Z,5.00
2022-08-03T09:42:50.541Z,6.80
2022-08-03T09:43:50.528Z,6.10
2022-08-03T09:44:50.521Z,6.70
2022-08-03T09:45:50.534Z,5.70
2022-08-03T09:46:50.501Z,4.40
2022-08-03T09:47:50.495Z,6.70
2022-08-03T09:48:50.479Z,5.60
2022-08-03T09:49:50.472Z,4.90
2022-08-03T09:50:58.459Z,6.00
2022-08-03T09:52:39.416Z,5.40
2022-08-03T09:52:54.883Z,8.30
2022-08-03T09:53:58.970Z,5.70
2022-08-03T09:54:50.426Z,6.90
2022-08-03T09:56:33.651Z,5.90
2022-08-03T09:56:50.405Z,3.90
2022-08-03T09:57:50.395Z,5.40
2022-08-03T09:58:50.379Z,6.00
2022-08-03T09:59:50.380Z,4.40
2022-08-03T10:00:50.404Z,5.20
2022-08-03T10:01:50.352Z,4.10
2022-08-03T10:02:50.339Z,3.10
2022-08-03T10:04:02.965Z,5.70
2022-08-03T10:04:50.333Z,4.90
2022-08-03T10:05:50.338Z,5.50
2022-08-03T10:06:50.304Z,4.00
2022-08-03T10:07:50.295Z,5.00
2022-08-03T10:08:50.290Z,5.50
2022-08-03T10:09:50.283Z,4.40
2022-08-03T10:10:50.283Z,4.70
2022-08-03T10:11:50.256Z,3.30
2022-08-03T10:12:50.242Z,6.20
2022-08-03T10:13:50.235Z,3.80
2022-08-03T10:14:50.237Z,4.30
2022-08-03T10:16:23.005Z,4.40
2022-08-03T10:16:50.217Z,3.80
2022-08-03T10:17:50.211Z,4.40
2022-08-03T10:18:50.184Z,6.00
2022-08-03T10:19:50.178Z,6.90
2022-08-03T10:20:50.192Z,5.70
2022-08-03T10:21:50.166Z,4.90
2022-08-03T10:22:50.141Z,5.30
2022-08-03T10:23:50.138Z,4.50
2022-08-03T10:24:50.122Z,3.90
2022-08-03T10:25:50.141Z,3.50
2022-08-03T10:26:50.385Z,3.70
2022-08-03T10:27:50.096Z,3.90
2022-08-03T10:28:50.080Z,5.20
2022-08-03T10:29:50.077Z,5.30
2022-08-03T10:30:50.084Z,4.20
2022-08-03T10:31:57.248Z,4.70
2022-08-03T10:32:50.053Z,4.00
2022-08-03T10:33:52.893Z,2.70
2022-08-03T10:34:50.022Z,3.50
2022-08-03T10:35:50.044Z,3.90
2022-08-03T10:36:50.010Z,2.30
2022-08-03T10:37:56.875Z,4.60
2022-08-03T10:38:49.988Z,3.90
2022-08-03T10:39:49.979Z,2.20
2022-08-03T10:40:52.615Z,2.30
2022-08-03T10:41:49.959Z,4.90
2022-08-03T10:42:50.205Z,2.80
2022-08-03T10:43:49.936Z,3.10
2022-08-03T10:44:49.941Z,2.80
2022-08-03T10:45:49.940Z,2.20
2022-08-03T10:46:49.903Z,2.60
2022-08-03T10:47:49.899Z,2.40
2022-08-03T10:48:49.885Z,2.40
2022-08-03T10:49:49.971Z,2.70
2022-08-03T10:50:49.892Z,2.80
2022-08-03T10:51:54.325Z,5.20
2022-08-03T10:52:49.872Z,2.80
2022-08-03T10:53:54.571Z,3.20
2022-08-03T10:54:49.833Z,3.10
2022-08-03T10:55:49.857Z,3.10
2022-08-03T10:56:50.376Z,3.10
2022-08-03T10:57:50.095Z,3.10
2022-08-03T10:58:56.913Z,1.80
2022-08-03T10:59:49.787Z,2.90
2022-08-03T11:00:49.874Z,2.50
2022-08-03T11:01:59.262Z,2.40
2022-08-03T11:02:49.758Z,3.00
2022-08-03T11:03:49.745Z,3.20
2022-08-03T11:04:49.729Z,3.10
2022-08-03T11:05:49.755Z,4.40
2022-08-03T11:06:49.711Z,3.50
2022-08-03T11:07:53.084Z,4.40
2022-08-03T11:08:49.696Z,3.30
2022-08-03T11:09:49.691Z,2.90
2022-08-03T11:10:49.703Z,5.40
2022-08-03T11:11:49.666Z,3.50
2022-08-03T11:12:49.656Z,3.80
2022-08-03T11:13:49.650Z,3.70
2022-08-03T11:14:49.634Z,4.00
2022-08-03T11:15:49.668Z,4.10
2022-08-03T11:16:49.617Z,3.70
2022-08-03T11:17:56.043Z,2.60
2022-08-03T11:18:49.670Z,2.90
2022-08-03T11:19:56.486Z,2.90
2022-08-03T11:20:49.618Z,4.20
2022-08-03T11:21:49.574Z,4.40
2022-08-03T11:22:49.559Z,3.00
2022-08-03T11:24:03.509Z,3.60
2022-08-03T11:24:49.566Z,6.00
2022-08-03T11:25:54.566Z,3.40
2022-08-03T11:26:49.710Z,2.40
2022-08-03T11:27:50.201Z,2.90
2022-08-03T11:28:49.502Z,3.70
2022-08-03T11:29:49.503Z,3.20
2022-08-03T11:30:49.520Z,3.10
2022-08-03T11:31:50.936Z,3.00
2022-08-03T11:32:49.467Z,3.10
2022-08-03T11:33:49.462Z,2.70
2022-08-03T11:34:49.444Z,2.70
2022-08-03T11:35:49.478Z,3.80
2022-08-03T11:36:49.426Z,2.30
2022-08-03T11:38:03.406Z,3.50
2022-08-03T11:38:49.412Z,3.70
2022-08-03T11:39:49.406Z,2.90
2022-08-03T11:40:49.416Z,1.80
2022-08-03T11:41:49.385Z,2.30
2022-08-03T11:42:49.522Z,2.30
2022-08-03T11:43:49.371Z,3.00
2022-08-03T11:44:49.355Z,2.10
2022-08-03T11:45:49.398Z,2.50
2022-08-03T11:46:49.336Z,3.50
2022-08-03T11:47:50.930Z,2.80
2022-08-03T11:48:49.312Z,2.80
2022-08-03T11:49:49.321Z,3.30
2022-08-03T11:50:49.326Z,2.80
2022-08-03T11:51:49.291Z,2.70
2022-08-03T11:52:49.282Z,2.70
2022-08-03T11:53:49.399Z,2.80
2022-08-03T11:54:49.258Z,3.70
2022-08-03T11:55:49.284Z,1.90
2022-08-03T11:56:49.242Z,2.40
2022-08-03T11:59:16.666Z,2.40
2022-08-03T11:59:24.341Z,2.50
2022-08-03T11:59:49.260Z,4.70
2022-08-03T12:00:49.229Z,3.00
2022-08-03T12:01:49.331Z,3.90
2022-08-03T12:02:49.234Z,3.90
2022-08-03T12:03:49.179Z,1.90
2022-08-03T12:04:49.173Z,2.60
2022-08-03T12:05:52.117Z,4.10
2022-08-03T12:06:49.150Z,3.60
2022-08-03T12:08:04.759Z,3.30
2022-08-03T12:08:49.135Z,2.20
2022-08-03T12:09:49.134Z,2.70
2022-08-03T12:10:49.174Z,4.30
2022-08-03T12:11:59.887Z,2.70
2022-08-03T12:12:49.102Z,2.60
2022-08-03T12:14:44.892Z,2.60
2022-08-03T12:14:56.066Z,3.00
2022-08-03T12:15:49.162Z,3.80
2022-08-03T12:16:49.118Z,2.90
2022-08-03T12:17:49.056Z,3.10
2022-08-03T12:18:49.041Z,6.10
2022-08-03T12:19:49.055Z,3.50
2022-08-03T12:20:49.054Z,3.00
2022-08-03T12:21:56.695Z,2.80
2022-08-03T12:22:49.014Z,2.60
2022-08-03T12:23:49.008Z,2.50
2022-08-03T12:24:48.996Z,3.00
2022-08-03T12:25:49.836Z,2.50
2022-08-03T12:26:58.162Z,2.00
2022-08-03T12:27:48.988Z,3.60
2022-08-03T12:28:50.001Z,2.10
2022-08-03T12:29:57.305Z,2.60
2022-08-03T12:30:48.984Z,3.90
2022-08-03T12:31:48.938Z,2.70
2022-08-03T12:32:48.955Z,1.70
2022-08-03T12:33:48.926Z,2.30
2022-08-03T12:34:48.918Z,2.90
2022-08-03T12:35:52.112Z,3.00
2022-08-03T12:36:48.899Z,2.00
2022-08-03T12:37:48.911Z,2.20
2022-08-03T12:38:48.993Z,3.40
2022-08-03T12:40:01.377Z,1.90
2022-08-03T12:40:48.916Z,4.30
2022-08-03T12:41:48.865Z,2.40
2022-08-03T12:42:48.851Z,2.50
2022-08-03T12:43:48.848Z,3.50
2022-08-03T12:44:48.931Z,2.30
2022-08-03T12:45:49.413Z,2.60
2022-08-03T12:46:48.821Z,2.00
2022-08-03T12:47:48.818Z,3.00
2022-08-03T12:48:49.418Z,3.30
2022-08-03T12:49:48.803Z,5.10
2022-08-03T12:50:53.556Z,3.50
2022-08-03T12:51:48.791Z,1.70
2022-08-03T12:52:48.773Z,4.90
2022-08-03T12:53:48.768Z,3.00
2022-08-03T12:54:48.757Z,2.60
2022-08-03T12:55:57.542Z,2.40
2022-08-03T12:56:48.746Z,3.30
2022-08-03T12:57:48.735Z,3.10
2022-08-03T12:58:48.724Z,4.40
2022-08-03T12:59:52.829Z,2.70
2022-08-03T13:00:48.736Z,3.00
2022-08-03T13:01:55.235Z,2.60
2022-08-03T13:03:00.530Z,3.50
2022-08-03T13:03:50.162Z,2.80
2022-08-03T13:04:48.679Z,4.10
2022-08-03T13:05:48.703Z,2.10
2022-08-03T13:06:48.678Z,2.00
2022-08-03T13:07:48.773Z,2.10
2022-08-03T13:08:49.241Z,2.90
2022-08-03T13:09:48.659Z,3.20
2022-08-03T13:10:48.664Z,2.80
2022-08-03T13:12:02.370Z,3.50
2022-08-03T13:12:48.618Z,2.80
2022-08-03T13:13:48.611Z,2.40
2022-08-03T13:14:48.595Z,2.10
2022-08-03T13:15:48.716Z,4.10
2022-08-03T13:16:49.549Z,3.00
2022-08-03T13:17:48.579Z,2.00
2022-08-03T13:18:52.359Z,3.30